Time;durP1;ratioP1;P1;durP2;ratioP2;P2;SDS_P1;SDS_P2;PMS_P1;PMS_P2;Temp;Humidity;BMP_temperature;BMP_pressure;BME280_temperature;BME280_humidity;BME280_pressure;Samples;Min_cycle;Max_cycle;Signal;HPM_P1;HPM_P2
2021/08/08 00:02:00;;;;;;;3.42;1.73;;;;;21.80;99955.00;;;;5049712;28;20204;-75
2021/08/08 00:04:28;;;;;;;2.22;1.75;;;;;21.80;99955.00;;;;5050165;28;20198;-75
2021/08/08 00:06:55;;;;;;;2.08;1.63;;;;;21.80;99964.00;;;;5048776;28;20227;-75
2021/08/08 00:09:23;;;;;;;1.60;1.45;;;;;21.80;99958.00;;;;5050053;28;20203;-75
2021/08/08 00:11:51;;;;;;;4.00;2.10;;;;;21.80;99968.00;;;;5049377;28;20199;-75
2021/08/08 00:14:18;;;;;;;1.80;1.70;;;;;21.80;99962.00;;;;5050070;28;20223;-74
2021/08/08 00:16:45;;;;;;;1.55;1.45;;;;;21.80;99968.00;;;;5049694;28;20188;-75
2021/08/08 00:19:13;;;;;;;2.03;1.85;;;;;21.80;99974.00;;;;5049521;28;20789;-75
2021/08/08 00:21:40;;;;;;;2.75;1.83;;;;;21.80;99969.00;;;;5049368;28;20589;-75
2021/08/08 00:24:07;;;;;;;2.70;1.85;;;;;21.80;99965.00;;;;5049937;28;20215;-76
2021/08/08 00:26:36;;;;;;;2.00;1.42;;;;;21.80;99968.00;;;;5049286;28;20219;-75
2021/08/08 00:29:04;;;;;;;3.53;2.10;;;;;21.80;99972.00;;;;5049164;28;20207;-75
2021/08/08 00:31:31;;;;;;;2.50;2.30;;;;;21.80;99979.00;;;;5049849;28;20228;-75
2021/08/08 00:33:58;;;;;;;2.58;1.65;;;;;21.80;99977.00;;;;5048838;28;20214;-76
2021/08/08 00:36:25;;;;;;;2.47;1.65;;;;;21.80;99976.00;;;;5048899;28;20208;-75
2021/08/08 00:38:56;;;;;;;2.05;1.50;;;;;21.80;99982.00;;;;5048808;28;20211;-75
2021/08/08 00:41:23;;;;;;;2.30;1.88;;;;;21.80;99977.00;;;;5049705;28;20208;-76
2021/08/08 00:43:52;;;;;;;2.05;1.63;;;;;21.90;99979.00;;;;5048715;28;20250;-75
2021/08/08 00:46:19;;;;;;;1.92;1.73;;;;;21.90;99981.00;;;;5049420;28;20224;-76
2021/08/08 00:48:46;;;;;;;2.30;1.38;;;;;21.90;99979.00;;;;5048740;28;20670;-76
2021/08/08 00:51:13;;;;;;;2.08;1.70;;;;;21.90;99979.00;;;;5049845;28;20207;-75
2021/08/08 00:53:41;;;;;;;2.08;1.48;;;;;21.90;99975.00;;;;5049457;28;20329;-75
2021/08/08 00:56:08;;;;;;;2.78;1.63;;;;;21.90;99978.00;;;;5048551;28;20210;-75
2021/08/08 00:58:35;;;;;;;2.53;1.60;;;;;21.90;99978.00;;;;5049158;28;20204;-75
2021/08/08 01:01:06;;;;;;;1.85;1.50;;;;;21.90;99985.00;;;;5048057;28;20613;-75
2021/08/08 01:03:34;;;;;;;1.85;1.25;;;;;22.00;99985.00;;;;5049155;28;20670;-76
2021/08/08 01:06:06;;;;;;;1.45;1.23;;;;;21.90;99994.00;;;;5048638;28;20706;-75
2021/08/08 01:08:33;;;;;;;1.50;0.85;;;;;22.00;100003.00;;;;5049068;28;20203;-76
2021/08/08 01:11:02;;;;;;;1.88;1.08;;;;;21.90;100019.00;;;;5048886;28;20206;-75
2021/08/08 01:13:32;;;;;;;5.63;1.27;;;;;21.90;100026.00;;;;5048263;28;20200;-75
2021/08/08 01:15:59;;;;;;;1.73;1.38;;;;;21.90;100030.00;;;;5046168;28;20203;-76
2021/08/08 01:18:29;;;;;;;2.10;1.38;;;;;21.90;100024.00;;;;5049004;28;20206;-76
2021/08/08 01:20:58;;;;;;;1.38;0.98;;;;;21.80;99994.00;;;;5047948;28;20204;-76
2021/08/08 01:23:30;;;;;;;1.65;0.95;;;;;21.80;100014.00;;;;5048958;28;20643;-76
2021/08/08 01:25:59;;;;;;;2.35;0.90;;;;;21.80;100033.00;;;;5048687;28;20203;-76
2021/08/08 01:28:27;;;;;;;1.35;1.00;;;;;21.80;100019.00;;;;5048565;28;20234;-76
2021/08/08 01:30:54;;;;;;;1.33;0.90;;;;;21.80;100007.00;;;;5048590;28;20199;-76
2021/08/08 01:33:21;;;;;;;0.85;0.80;;;;;21.80;100017.00;;;;5048496;28;20207;-75
2021/08/08 01:35:49;;;;;;;1.63;1.23;;;;;21.70;100022.00;;;;5048054;28;20235;-75
2021/08/08 01:38:18;;;;;;;2.17;1.33;;;;;21.70;100013.00;;;;5048916;28;20238;-76
2021/08/08 01:40:51;;;;;;;1.50;1.40;;;;;21.70;100011.00;;;;5048747;28;20200;-76
2021/08/08 01:43:25;;;;;;;2.42;1.75;;;;;21.70;100012.00;;;;5047870;28;20218;-76
2021/08/08 01:45:55;;;;;;;1.77;1.55;;;;;21.70;100019.00;;;;5047990;28;20200;-76
2021/08/08 01:48:24;;;;;;;5.40;2.03;;;;;21.80;100014.00;;;;5048748;28;20220;-75
2021/08/08 01:50:51;;;;;;;4.63;2.03;;;;;21.80;100024.00;;;;5051239;28;20214;-75
2021/08/08 01:53:18;;;;;;;1.90;1.80;;;;;21.80;100031.00;;;;5051991;28;20208;-75
2021/08/08 01:55:45;;;;;;;5.55;2.00;;;;;21.80;100036.00;;;;5052348;28;20203;-75
2021/08/08 01:58:13;;;;;;;3.78;2.22;;;;;21.70;100035.00;;;;5052108;28;20701;-75
2021/08/08 02:00:41;;;;;;;3.00;2.05;;;;;21.70;100040.00;;;;5052656;28;20208;-75
2021/08/08 02:03:09;;;;;;;5.10;2.05;;;;;21.70;100042.00;;;;5051801;28;20259;-76
2021/08/08 02:05:39;;;;;;;3.58;2.35;;;;;21.70;100055.00;;;;5051392;28;20208;-75
2021/08/08 02:08:06;;;;;;;4.53;2.38;;;;;21.70;100048.00;;;;5050544;28;20230;-76
2021/08/08 02:10:34;;;;;;;6.13;2.40;;;;;21.70;100055.00;;;;5031932;28;20208;-75
2021/08/08 02:13:01;;;;;;;3.88;2.30;;;;;21.60;100064.00;;;;5031583;28;20674;-75
2021/08/08 02:15:28;;;;;;;3.88;2.63;;;;;21.60;100061.00;;;;5031994;28;20204;-75
2021/08/08 02:17:57;;;;;;;3.63;2.35;;;;;21.70;100073.00;;;;5031632;28;20204;-76
2021/08/08 02:20:24;;;;;;;5.47;2.40;;;;;21.70;100076.00;;;;5031915;28;20212;-76
2021/08/08 02:22:51;;;;;;;4.97;2.78;;;;;21.70;100076.00;;;;5031527;28;20208;-75
2021/08/08 02:25:18;;;;;;;4.10;2.75;;;;;21.70;100075.00;;;;5033671;28;20196;-75
2021/08/08 02:27:46;;;;;;;5.32;3.22;;;;;21.70;100077.00;;;;5051321;28;20219;-75
2021/08/08 02:30:13;;;;;;;5.70;2.88;;;;;21.70;100080.00;;;;5051699;28;20720;-75
2021/08/08 02:32:40;;;;;;;10.05;3.45;;;;;21.70;100083.00;;;;5045195;28;20223;-75
2021/08/08 02:35:11;;;;;;;5.13;2.80;;;;;21.70;100086.00;;;;5030990;28;20235;-74
2021/08/08 02:37:39;;;;;;;10.40;3.63;;;;;21.70;100093.00;;;;5032102;28;20560;-75
2021/08/08 02:40:07;;;;;;;5.03;2.80;;;;;21.70;100093.00;;;;5031535;28;20212;-75
2021/08/08 02:42:34;;;;;;;7.65;3.08;;;;;21.70;100102.00;;;;5036439;28;20215;-75
2021/08/08 02:45:02;;;;;;;4.05;2.20;;;;;21.80;100101.00;;;;5051085;28;20203;-74
2021/08/08 02:47:30;;;;;;;6.90;2.83;;;;;21.70;100103.00;;;;5051506;28;20228;-74
2021/08/08 02:49:57;;;;;;;6.72;3.13;;;;;21.80;100109.00;;;;5051352;28;20211;-74
2021/08/08 02:52:26;;;;;;;7.00;2.92;;;;;21.80;100120.00;;;;5051375;28;20298;-75
2021/08/08 02:54:53;;;;;;;11.38;3.15;;;;;21.80;100116.00;;;;5050767;28;20215;-75
2021/08/08 02:57:20;;;;;;;5.60;3.03;;;;;21.80;100115.00;;;;5051635;28;20215;-75
2021/08/08 02:59:47;;;;;;;4.78;2.63;;;;;21.80;100120.00;;;;5050576;28;20210;-74
2021/08/08 03:02:15;;;;;;;7.45;3.35;;;;;21.80;100125.00;;;;5049266;28;20203;-74
2021/08/08 03:04:42;;;;;;;4.97;2.40;;;;;21.80;100129.00;;;;5051629;28;20238;-74
2021/08/08 03:07:09;;;;;;;5.45;2.97;;;;;21.80;100136.00;;;;5050371;28;20697;-74
2021/08/08 03:09:38;;;;;;;12.18;4.38;;;;;21.80;100134.00;;;;5051255;28;20215;-75
2021/08/08 03:12:05;;;;;;;9.05;2.70;;;;;21.80;100142.00;;;;5050068;28;20963;-75
2021/08/08 03:14:33;;;;;;;9.70;3.47;;;;;21.80;100140.00;;;;5051314;28;20213;-75
2021/08/08 03:17:00;;;;;;;10.48;3.30;;;;;21.80;100142.00;;;;5050225;28;20696;-74
2021/08/08 03:19:27;;;;;;;8.15;3.08;;;;;21.80;100149.00;;;;5050683;28;20207;-74
2021/08/08 03:21:54;;;;;;;6.13;2.95;;;;;21.80;100152.00;;;;5050583;28;20215;-75
2021/08/08 03:24:21;;;;;;;5.30;3.00;;;;;21.80;100162.00;;;;5050779;28;20203;-75
2021/08/08 03:26:50;;;;;;;5.70;3.15;;;;;21.70;100160.00;;;;5050518;28;20246;-75
2021/08/08 03:29:17;;;;;;;9.82;2.90;;;;;21.70;100157.00;;;;5050528;28;20211;-75
2021/08/08 03:31:44;;;;;;;7.90;3.20;;;;;21.70;100168.00;;;;5050913;28;20207;-75
2021/08/08 03:34:11;;;;;;;8.25;2.90;;;;;21.70;100170.00;;;;5050843;28;20242;-75
2021/08/08 03:36:39;;;;;;;9.32;2.88;;;;;21.70;100173.00;;;;5050425;28;20666;-74
2021/08/08 03:39:06;;;;;;;11.38;3.72;;;;;21.70;100180.00;;;;5050280;28;20204;-74
2021/08/08 03:41:33;;;;;;;5.63;2.50;;;;;21.70;100180.00;;;;5050702;28;20207;-74
2021/08/08 03:44:02;;;;;;;8.15;3.20;;;;;21.70;100187.00;;;;5049436;28;20577;-74
2021/08/08 03:46:29;;;;;;;7.40;3.33;;;;;21.70;100181.00;;;;5050461;28;20204;-75
2021/08/08 03:48:56;;;;;;;8.82;2.63;;;;;21.70;100201.00;;;;5050206;28;20234;-74
2021/08/08 03:51:23;;;;;;;6.22;2.88;;;;;21.70;100192.00;;;;5049509;28;20609;-75
2021/08/08 03:53:50;;;;;;;7.93;2.42;;;;;21.60;100207.00;;;;5049960;28;20215;-75
2021/08/08 03:56:18;;;;;;;4.65;2.58;;;;;21.60;100207.00;;;;5049885;28;20207;-75
2021/08/08 03:58:45;;;;;;;7.22;2.83;;;;;21.60;100207.00;;;;5049963;28;20195;-75
2021/08/08 04:01:13;;;;;;;5.05;2.28;;;;;21.60;100213.00;;;;5050115;28;20680;-74
2021/08/08 04:03:41;;;;;;;4.18;2.55;;;;;21.60;100215.00;;;;5050216;28;20211;-76
2021/08/08 04:06:08;;;;;;;4.20;2.22;;;;;21.60;100216.00;;;;5049020;28;20196;-75
2021/08/08 04:08:35;;;;;;;8.00;2.90;;;;;21.60;100219.00;;;;5049912;28;20228;-75
2021/08/08 04:11:02;;;;;;;8.45;2.85;;;;;21.50;100217.00;;;;5049412;28;20210;-75
2021/08/08 04:13:29;;;;;;;4.72;2.92;;;;;21.60;100219.00;;;;5049426;28;20257;-75
2021/08/08 04:15:57;;;;;;;10.75;3.15;;;;;21.50;100225.00;;;;5049085;28;20211;-75
2021/08/08 04:18:25;;;;;;;6.72;2.97;;;;;21.50;100225.00;;;;5049627;28;20210;-74
2021/08/08 04:20:52;;;;;;;3.85;2.60;;;;;21.50;100235.00;;;;5049214;28;20253;-75
2021/08/08 04:23:20;;;;;;;6.32;2.63;;;;;21.50;100238.00;;;;5049509;28;20215;-75
2021/08/08 04:25:47;;;;;;;5.10;2.00;;;;;21.50;100223.00;;;;5048845;28;20198;-75
2021/08/08 04:28:14;;;;;;;5.88;2.70;;;;;21.50;100240.00;;;;5049012;28;20223;-75
2021/08/08 04:30:41;;;;;;;3.95;2.22;;;;;21.40;100244.00;;;;5049315;28;20204;-75
2021/08/08 04:33:08;;;;;;;4.18;1.98;;;;;21.40;100242.00;;;;5048921;28;20208;-75
2021/08/08 04:35:37;;;;;;;2.83;1.70;;;;;21.40;100248.00;;;;5049007;28;20705;-75
2021/08/08 04:38:05;;;;;;;4.07;1.77;;;;;21.40;100246.00;;;;5048894;28;20305;-75
2021/08/08 04:40:33;;;;;;;2.25;1.73;;;;;21.40;100246.00;;;;5049202;28;20591;-75
2021/08/08 04:43:01;;;;;;;6.68;3.20;;;;;21.40;100247.00;;;;5048942;28;20207;-76
2021/08/08 04:45:28;;;;;;;5.35;2.28;;;;;21.40;100245.00;;;;5049524;28;20249;-75
2021/08/08 04:47:55;;;;;;;3.03;1.88;;;;;21.40;100246.00;;;;5048747;28;20235;-76
2021/08/08 04:50:23;;;;;;;6.60;2.47;;;;;21.40;100253.00;;;;5049306;28;20731;-75
2021/08/08 04:52:51;;;;;;;4.38;2.13;;;;;21.40;100260.00;;;;5049242;28;20207;-75
2021/08/08 04:55:18;;;;;;;7.15;2.30;;;;;21.50;100259.00;;;;5049253;28;20199;-75
2021/08/08 04:57:46;;;;;;;6.03;2.90;;;;;21.40;100263.00;;;;5049007;28;20211;-75
2021/08/08 05:00:14;;;;;;;5.88;2.38;;;;;21.40;100269.00;;;;5048407;28;20206;-75
2021/08/08 05:02:46;;;;;;;8.73;2.95;;;;;21.40;100272.00;;;;5049120;28;20211;-75
2021/08/08 05:05:13;;;;;;;7.28;2.70;;;;;21.40;100275.00;;;;5049495;28;20249;-75
2021/08/08 05:07:41;;;;;;;5.38;2.33;;;;;21.40;100271.00;;;;5048851;28;20908;-75
2021/08/08 05:10:12;;;;;;;6.10;2.63;;;;;21.40;100275.00;;;;5048688;28;20199;-75
2021/08/08 05:12:40;;;;;;;8.73;2.50;;;;;21.40;100273.00;;;;5049132;28;20211;-75
2021/08/08 05:15:08;;;;;;;5.10;2.58;;;;;21.40;100282.00;;;;5047901;28;20207;-76
2021/08/08 05:17:35;;;;;;;6.13;2.40;;;;;21.40;100285.00;;;;5029222;28;20198;-76
2021/08/08 05:20:03;;;;;;;8.50;3.85;;;;;21.40;100283.00;;;;5028858;28;20200;-75
2021/08/08 05:22:31;;;;;;;10.40;2.47;;;;;21.40;100288.00;;;;5028760;28;20689;-75
2021/08/08 05:24:58;;;;;;;7.82;2.85;;;;;21.40;100300.00;;;;5030202;28;20207;-75
2021/08/08 05:27:26;;;;;;;9.52;3.30;;;;;21.50;100303.00;;;;5033399;28;20257;-75
2021/08/08 05:29:54;;;;;;;8.88;2.70;;;;;21.50;100314.00;;;;5032661;28;20215;-75
2021/08/08 05:32:21;;;;;;;6.93;2.35;;;;;21.50;100305.00;;;;5039490;28;20581;-76
2021/08/08 05:34:48;;;;;;;3.42;2.10;;;;;21.40;100306.00;;;;5035686;28;20231;-76
2021/08/08 05:37:15;;;;;;;5.35;2.33;;;;;21.40;100309.00;;;;5033261;28;20204;-76
2021/08/08 05:39:43;;;;;;;5.60;2.15;;;;;21.40;100307.00;;;;5032412;28;20578;-76
2021/08/08 05:42:10;;;;;;;3.70;2.70;;;;;21.40;100304.00;;;;5032146;28;20227;-76
2021/08/08 05:44:38;;;;;;;6.45;2.45;;;;;21.40;100303.00;;;;5032698;28;21106;-76
2021/08/08 05:47:06;;;;;;;5.93;2.22;;;;;21.50;100295.00;;;;5032719;28;20482;-76
2021/08/08 05:49:34;;;;;;;9.55;3.03;;;;;21.50;100296.00;;;;5037088;28;20296;-76
2021/08/08 05:52:02;;;;;;;5.32;2.65;;;;;21.50;100297.00;;;;5052186;28;20199;-76
2021/08/08 05:54:29;;;;;;;9.45;2.88;;;;;21.50;100313.00;;;;5052471;28;20548;-75
2021/08/08 05:56:56;;;;;;;4.43;2.53;;;;;21.50;100304.00;;;;5051750;28;20203;-75
2021/08/08 05:59:24;;;;;;;5.65;2.35;;;;;21.40;100311.00;;;;5052640;28;20231;-76
2021/08/08 06:01:53;;;;;;;6.35;2.40;;;;;21.40;100316.00;;;;5052395;28;20220;-75
2021/08/08 06:04:20;;;;;;;4.95;2.17;;;;;21.40;100322.00;;;;5052561;28;20212;-76
2021/08/08 06:06:47;;;;;;;7.82;2.22;;;;;21.40;100313.00;;;;5051454;28;20204;-75
2021/08/08 06:09:14;;;;;;;5.35;1.98;;;;;21.40;100320.00;;;;5051907;28;20696;-76
2021/08/08 06:11:42;;;;;;;6.95;2.38;;;;;21.40;100330.00;;;;5052780;28;20195;-76
2021/08/08 06:14:09;;;;;;;7.15;2.85;;;;;21.40;100332.00;;;;5051959;28;20658;-75
2021/08/08 06:16:37;;;;;;;10.88;3.42;;;;;21.40;100335.00;;;;5051827;28;20202;-75
2021/08/08 06:19:05;;;;;;;8.32;3.08;;;;;21.40;100346.00;;;;5051655;28;20207;-76
2021/08/08 06:21:33;;;;;;;5.45;2.15;;;;;21.40;100342.00;;;;5052071;28;20200;-74
2021/08/08 06:24:00;;;;;;;6.25;2.55;;;;;21.40;100355.00;;;;5051256;28;20203;-74
2021/08/08 06:26:27;;;;;;;5.85;1.95;;;;;21.40;100354.00;;;;5032095;28;20619;-75
2021/08/08 06:28:56;;;;;;;4.63;2.10;;;;;21.40;100356.00;;;;5030766;28;20234;-74
2021/08/08 06:31:23;;;;;;;7.95;2.33;;;;;21.40;100347.00;;;;5031832;28;20724;-75
2021/08/08 06:33:50;;;;;;;9.43;3.05;;;;;21.40;100367.00;;;;5031735;28;20200;-75
2021/08/08 06:36:19;;;;;;;6.28;2.17;;;;;21.40;100369.00;;;;5031681;28;20203;-74
2021/08/08 06:38:46;;;;;;;8.70;2.40;;;;;21.40;100373.00;;;;5031349;28;20200;-74
2021/08/08 06:41:13;;;;;;;7.68;1.70;;;;;21.40;100384.00;;;;5041201;28;20211;-74
2021/08/08 06:43:40;;;;;;;5.78;2.15;;;;;21.50;100392.00;;;;5051343;28;20203;-74
2021/08/08 06:46:08;;;;;;;5.82;1.77;;;;;21.50;100388.00;;;;5051485;28;20203;-75
2021/08/08 06:48:35;;;;;;;5.28;2.13;;;;;21.50;100397.00;;;;5051017;28;20226;-73
2021/08/08 06:51:02;;;;;;;6.25;1.90;;;;;21.50;100414.00;;;;5051054;28;20580;-74
2021/08/08 06:53:31;;;;;;;7.15;1.45;;;;;21.50;100411.00;;;;5051412;28;20210;-75
2021/08/08 06:56:00;;;;;;;5.20;2.00;;;;;21.50;100403.00;;;;5050518;28;20211;-75
2021/08/08 06:58:27;;;;;;;5.60;2.28;;;;;21.60;100420.00;;;;5050988;28;20207;-75
2021/08/08 07:00:54;;;;;;;5.07;2.22;;;;;21.60;100418.00;;;;5050703;28;20708;-76
2021/08/08 07:03:21;;;;;;;4.45;1.60;;;;;21.70;100422.00;;;;5051049;28;20203;-75
2021/08/08 07:05:49;;;;;;;5.53;2.03;;;;;21.70;100420.00;;;;5050815;28;20200;-75
2021/08/08 07:08:16;;;;;;;6.78;2.00;;;;;21.70;100428.00;;;;5051200;28;20230;-76
2021/08/08 07:10:44;;;;;;;7.80;2.03;;;;;21.70;100428.00;;;;5051175;28;20566;-76
2021/08/08 07:13:12;;;;;;;7.93;2.15;;;;;21.80;100424.00;;;;5050892;28;20302;-75
2021/08/08 07:15:39;;;;;;;5.97;2.75;;;;;21.80;100429.00;;;;5051302;28;20223;-75
2021/08/08 07:18:06;;;;;;;3.85;2.38;;;;;21.80;100432.00;;;;5050353;28;20211;-76
2021/08/08 07:20:33;;;;;;;13.20;2.72;;;;;21.80;100431.00;;;;5051298;28;20215;-75
2021/08/08 07:23:00;;;;;;;7.80;2.35;;;;;21.80;100444.00;;;;5049997;28;20200;-76
2021/08/08 07:25:28;;;;;;;5.30;2.05;;;;;21.80;100431.00;;;;5030482;28;20204;-75
2021/08/08 07:27:56;;;;;;;6.88;1.85;;;;;21.80;100440.00;;;;5030320;28;20212;-75
2021/08/08 07:30:24;;;;;;;7.22;2.78;;;;;21.80;100435.00;;;;5031514;28;20224;-75
2021/08/08 07:32:51;;;;;;;7.93;2.15;;;;;21.90;100450.00;;;;5045308;28;20707;-76
2021/08/08 07:35:18;;;;;;;5.68;2.22;;;;;21.90;100440.00;;;;5050685;28;20287;-76
2021/08/08 07:37:46;;;;;;;6.78;1.83;;;;;22.00;100444.00;;;;5050491;28;20210;-76
2021/08/08 07:40:13;;;;;;;7.43;2.17;;;;;22.00;100433.00;;;;5050690;28;20200;-76
2021/08/08 07:42:40;;;;;;;6.45;1.67;;;;;22.10;100444.00;;;;5051055;28;20200;-76
2021/08/08 07:45:10;;;;;;;4.80;2.65;;;;;22.10;100455.00;;;;5049464;28;20204;-76
2021/08/08 07:47:37;;;;;;;5.43;1.60;;;;;22.20;100453.00;;;;5050048;28;20206;-75
2021/08/08 07:50:05;;;;;;;5.60;1.95;;;;;22.20;100466.00;;;;5050101;28;20227;-76
2021/08/08 07:52:32;;;;;;;8.75;2.15;;;;;22.30;100460.00;;;;5049953;28;20682;-75
2021/08/08 07:54:59;;;;;;;9.95;2.33;;;;;22.30;100476.00;;;;5050190;28;20204;-76
2021/08/08 07:57:26;;;;;;;6.88;2.08;;;;;22.40;100478.00;;;;5050819;28;20254;-75
2021/08/08 07:59:54;;;;;;;5.25;1.90;;;;;22.40;100487.00;;;;5049609;28;20203;-76
2021/08/08 08:02:22;;;;;;;9.20;2.10;;;;;22.40;100475.00;;;;5050387;28;20204;-76
2021/08/08 08:04:49;;;;;;;9.88;3.53;;;;;22.40;100472.00;;;;5050064;28;20214;-75
2021/08/08 08:07:17;;;;;;;5.07;2.30;;;;;22.40;100485.00;;;;5050336;28;20234;-76
2021/08/08 08:09:44;;;;;;;3.45;2.15;;;;;22.40;100494.00;;;;5050553;28;20224;-76
2021/08/08 08:12:11;;;;;;;4.43;2.33;;;;;22.40;100478.00;;;;5049607;28;20230;-76
2021/08/08 08:14:38;;;;;;;8.43;2.53;;;;;22.30;100476.00;;;;5050109;28;20204;-76
2021/08/08 08:17:05;;;;;;;5.60;2.60;;;;;22.30;100476.00;;;;5049655;28;20212;-76
2021/08/08 08:19:34;;;;;;;8.20;2.20;;;;;22.40;100477.00;;;;5049805;28;20243;-77
2021/08/08 08:22:02;;;;;;;5.35;2.00;;;;;22.40;100493.00;;;;5049570;28;20550;-76
2021/08/08 08:24:29;;;;;;;6.25;2.67;;;;;22.50;100500.00;;;;5038675;28;20204;-75
2021/08/08 08:26:56;;;;;;;4.13;1.95;;;;;22.60;100488.00;;;;5029748;28;20203;-75
2021/08/08 08:29:23;;;;;;;5.53;2.10;;;;;22.70;100491.00;;;;5030703;28;20220;-76
2021/08/08 08:31:50;;;;;;;6.97;2.20;;;;;22.80;100497.00;;;;5031396;28;20215;-75
2021/08/08 08:34:18;;;;;;;8.32;2.20;;;;;22.90;100501.00;;;;5039329;28;20222;-75
2021/08/08 08:36:46;;;;;;;5.20;2.13;;;;;23.00;100494.00;;;;5029692;28;20204;-76
2021/08/08 08:39:14;;;;;;;2.88;1.95;;;;;23.10;100502.00;;;;5031478;28;20235;-76
2021/08/08 08:41:41;;;;;;;5.50;2.28;;;;;23.30;100514.00;;;;5050115;28;20226;-75
2021/08/08 08:44:09;;;;;;;8.05;2.67;;;;;23.30;100505.00;;;;5049200;28;20615;-75
2021/08/08 08:46:40;;;;;;;4.47;1.73;;;;;23.40;100505.00;;;;5048882;28;20211;-75
2021/08/08 08:49:10;;;;;;;4.13;1.70;;;;;23.50;100509.00;;;;5048795;28;20219;-75
2021/08/08 08:51:41;;;;;;;4.97;1.70;;;;;23.50;100521.00;;;;5049710;28;20192;-75
2021/08/08 08:54:10;;;;;;;4.32;2.13;;;;;23.50;100519.00;;;;5048963;28;20285;-75
2021/08/08 08:56:37;;;;;;;4.18;1.80;;;;;23.50;100524.00;;;;5049016;28;20208;-76
2021/08/08 08:59:06;;;;;;;4.85;2.20;;;;;23.50;100535.00;;;;5048502;28;20211;-76
2021/08/08 09:01:33;;;;;;;5.55;1.98;;;;;23.50;100547.00;;;;5049456;28;20665;-75
2021/08/08 09:04:00;;;;;;;6.05;2.90;;;;;23.50;100537.00;;;;5049237;28;20196;-76
2021/08/08 09:06:28;;;;;;;6.25;1.90;;;;;23.40;100546.00;;;;5048880;28;20341;-75
2021/08/08 09:08:55;;;;;;;5.15;2.08;;;;;23.40;100546.00;;;;5048486;28;20231;-75
2021/08/08 09:11:24;;;;;;;3.95;1.98;;;;;23.40;100555.00;;;;5049394;28;20654;-75
2021/08/08 09:13:53;;;;;;;5.82;1.60;;;;;23.40;100542.00;;;;5048326;28;20585;-76
2021/08/08 09:16:22;;;;;;;4.25;2.15;;;;;23.50;100554.00;;;;5049283;28;20191;-75
2021/08/08 09:18:51;;;;;;;3.08;1.50;;;;;23.50;100565.00;;;;5049243;28;20207;-75
2021/08/08 09:21:19;;;;;;;6.07;2.20;;;;;23.50;100550.00;;;;5048779;28;20211;-75
2021/08/08 09:23:53;;;;;;;10.30;2.88;;;;;23.50;100561.00;;;;5048140;28;20203;-75
2021/08/08 09:26:31;;;;;;;5.15;2.25;;;;;23.40;100569.00;;;;5049014;28;20258;-75
2021/08/08 09:29:06;;;;;;;5.88;2.30;;;;;23.40;100571.00;;;;5048545;28;20687;-75
2021/08/08 09:31:42;;;;;;;7.28;2.00;;;;;23.40;100574.00;;;;5048559;28;20223;-75
2021/08/08 09:34:21;;;;;;;4.30;1.58;;;;;23.50;100569.00;;;;5047706;28;20241;-75
2021/08/08 09:36:48;;;;;;;3.80;1.50;;;;;23.60;100587.00;;;;5048944;28;20560;-75
2021/08/08 09:39:30;;;;;;;3.80;1.88;;;;;23.50;100583.00;;;;5048338;28;20199;-74
2021/08/08 09:42:15;;;;;;;4.85;2.33;;;;;23.50;100580.00;;;;5048298;28;20199;-75
2021/08/08 09:44:53;;;;;;;7.03;1.85;;;;;23.60;100598.00;;;;5048723;28;20199;-74
2021/08/08 09:47:22;;;;;;;7.15;2.10;;;;;23.70;100609.00;;;;5048134;28;20677;-75
2021/08/08 09:50:04;;;;;;;4.22;2.40;;;;;23.70;100601.00;;;;5048218;28;20231;-75
2021/08/08 09:52:32;;;;;;;4.75;1.63;;;;;23.80;100611.00;;;;5048832;28;20249;-75
2021/08/08 09:55:00;;;;;;;5.38;2.10;;;;;23.90;100610.00;;;;5048208;28;20211;-75
2021/08/08 09:57:38;;;;;;;8.43;2.38;;;;;23.90;100611.00;;;;5048732;28;20207;-75
2021/08/08 10:00:07;;;;;;;7.50;2.35;;;;;24.00;100615.00;;;;5047965;28;20326;-75
2021/08/08 10:02:35;;;;;;;9.65;2.40;;;;;24.10;100614.00;;;;5048497;28;20208;-75
2021/08/08 10:05:02;;;;;;;8.00;2.25;;;;;24.10;100611.00;;;;5047884;28;20807;-75
2021/08/08 10:07:34;;;;;;;3.75;1.58;;;;;24.10;100624.00;;;;5047997;28;20670;-75
2021/08/08 10:10:02;;;;;;;2.53;1.80;;;;;24.10;100619.00;;;;5048026;28;20227;-75
2021/08/08 10:12:45;;;;;;;6.53;2.17;;;;;24.10;100621.00;;;;5052343;28;20195;-76
2021/08/08 10:15:13;;;;;;;6.55;1.85;;;;;24.20;100625.00;;;;5052032;28;20207;-75
2021/08/08 10:17:43;;;;;;;5.10;1.77;;;;;24.20;100621.00;;;;5051988;28;20203;-75
2021/08/08 10:20:10;;;;;;;3.60;1.73;;;;;24.20;100633.00;;;;5051874;28;20608;-76
2021/08/08 10:22:41;;;;;;;4.22;1.60;;;;;24.30;100626.00;;;;5051781;28;20203;-75
2021/08/08 10:25:10;;;;;;;8.30;1.85;;;;;24.30;100640.00;;;;5051101;28;20306;-75
2021/08/08 10:27:38;;;;;;;5.90;2.20;;;;;24.30;100643.00;;;;5052226;28;20237;-74
2021/08/08 10:30:06;;;;;;;6.70;1.88;;;;;24.30;100642.00;;;;5051966;28;20592;-75
2021/08/08 10:32:34;;;;;;;5.57;1.75;;;;;24.30;100649.00;;;;5052106;28;20314;-76
2021/08/08 10:35:12;;;;;;;5.43;1.80;;;;;24.20;100655.00;;;;5051145;28;20724;-75
2021/08/08 10:37:40;;;;;;;4.22;2.22;;;;;24.20;100655.00;;;;5051305;28;20721;-75
2021/08/08 10:40:08;;;;;;;3.95;2.13;;;;;24.20;100652.00;;;;5051142;28;20306;-75
2021/08/08 10:42:44;;;;;;;6.97;2.35;;;;;24.20;100652.00;;;;5051725;28;20218;-75
2021/08/08 10:45:23;;;;;;;5.85;2.00;;;;;24.20;100651.00;;;;5051365;28;20215;-76
2021/08/08 10:47:58;;;;;;;6.07;2.42;;;;;24.20;100653.00;;;;5051289;28;20294;-76
2021/08/08 10:50:37;;;;;;;3.78;2.10;;;;;24.20;100655.00;;;;5051108;28;20720;-75
2021/08/08 10:53:05;;;;;;;7.97;1.52;;;;;24.30;100661.00;;;;5051057;28;20196;-76
2021/08/08 10:55:35;;;;;;;6.28;2.47;;;;;24.30;100660.00;;;;5051119;28;20695;-75
2021/08/08 10:58:15;;;;;;;7.07;2.47;;;;;24.20;100658.00;;;;5049811;28;20200;-75
2021/08/08 11:00:43;;;;;;;4.15;1.98;;;;;24.30;100659.00;;;;5050845;28;20235;-76
2021/08/08 11:03:12;;;;;;;4.18;1.58;;;;;24.30;100661.00;;;;5050360;28;20203;-76
2021/08/08 11:05:39;;;;;;;5.40;2.10;;;;;24.40;100655.00;;;;5050618;28;20204;-75
2021/08/08 11:08:09;;;;;;;5.95;2.08;;;;;24.40;100655.00;;;;5050587;28;20212;-76
2021/08/08 11:10:39;;;;;;;4.90;2.28;;;;;24.50;100666.00;;;;5051424;28;20223;-76
2021/08/08 11:13:19;;;;;;;6.80;1.85;;;;;24.50;100657.00;;;;5050632;28;20234;-75
2021/08/08 11:15:46;;;;;;;4.55;2.05;;;;;24.60;100662.00;;;;5050805;28;20187;-77
2021/08/08 11:18:14;;;;;;;3.55;2.05;;;;;24.60;100664.00;;;;5050339;28;20223;-77
2021/08/08 11:20:42;;;;;;;6.03;2.33;;;;;24.60;100669.00;;;;5051152;28;20204;-75
2021/08/08 11:23:10;;;;;;;4.18;2.33;;;;;24.70;100667.00;;;;5049336;28;20231;-74
2021/08/08 11:25:39;;;;;;;2.75;1.92;;;;;24.70;100669.00;;;;5050960;28;20215;-74
2021/08/08 11:28:07;;;;;;;2.80;1.67;;;;;24.70;100668.00;;;;5050086;28;20558;-74
2021/08/08 11:30:44;;;;;;;4.63;2.03;;;;;24.70;100657.00;;;;5049398;28;20321;-74
2021/08/08 11:33:12;;;;;;;5.07;2.70;;;;;24.80;100664.00;;;;5045341;28;20211;-74
2021/08/08 11:35:41;;;;;;;2.63;1.73;;;;;24.90;100678.00;;;;5030248;28;20232;-74
2021/08/08 11:38:16;;;;;;;3.85;2.13;;;;;24.90;100669.00;;;;5029360;28;20216;-75
2021/08/08 11:40:45;;;;;;;3.25;1.75;;;;;25.00;100680.00;;;;5030173;28;20196;-75
2021/08/08 11:43:13;;;;;;;6.13;2.67;;;;;25.10;100669.00;;;;5029497;28;20282;-74
2021/08/08 11:45:44;;;;;;;5.93;2.63;;;;;25.00;100676.00;;;;5029861;28;20201;-74
2021/08/08 11:48:16;;;;;;;3.53;2.20;;;;;25.10;100670.00;;;;5047710;28;20226;-74
2021/08/08 11:50:43;;;;;;;4.57;2.15;;;;;25.10;100670.00;;;;5049896;28;20223;-75
2021/08/08 11:53:11;;;;;;;6.85;1.88;;;;;25.20;100689.00;;;;5049391;28;20211;-74
2021/08/08 11:55:39;;;;;;;4.32;1.90;;;;;25.20;100699.00;;;;5048910;28;20211;-75
2021/08/08 11:58:08;;;;;;;4.10;1.63;;;;;25.20;100694.00;;;;5049774;28;20208;-76
2021/08/08 12:00:37;;;;;;;3.25;1.80;;;;;25.30;100694.00;;;;5050229;28;20218;-75
2021/08/08 12:03:07;;;;;;;3.08;1.63;;;;;25.30;100705.00;;;;5049333;28;20857;-74
2021/08/08 12:05:36;;;;;;;5.28;1.90;;;;;25.40;100698.00;;;;5029968;28;20203;-75
2021/08/08 12:08:05;;;;;;;3.08;1.58;;;;;25.30;100700.00;;;;5029962;28;20207;-75
2021/08/08 12:10:34;;;;;;;6.65;1.85;;;;;25.40;100694.00;;;;5029822;28;20698;-74
2021/08/08 12:13:13;;;;;;;6.45;1.60;;;;;25.40;100693.00;;;;5030016;28;20204;-75
2021/08/08 12:15:40;;;;;;;2.05;1.63;;;;;25.40;100694.00;;;;5029525;28;20203;-75